createdAt,value
2018-10-07T00:00:24.285Z,123.03
2018-10-07T00:02:52.753Z,121.57
2018-10-07T00:05:21.239Z,120.10
2018-10-07T00:07:50.502Z,121.50
2018-10-07T00:10:19.280Z,123.93
2018-10-07T00:12:47.799Z,120.73
2018-10-07T00:15:16.283Z,125.93
2018-10-07T00:17:45.167Z,123.73
2018-10-07T00:20:13.663Z,129.57
2018-10-07T00:22:42.108Z,120.30
2018-10-07T00:25:10.592Z,118.70
2018-10-07T00:27:39.241Z,119.03
2018-10-07T00:30:07.683Z,119.43
2018-10-07T00:32:36.183Z,124.13
2018-10-07T00:35:04.694Z,122.23
2018-10-07T00:37:33.156Z,120.00
2018-10-07T00:40:02.356Z,118.50
2018-10-07T00:42:31.498Z,114.47
2018-10-07T00:45:00.626Z,117.40
2018-10-07T00:47:29.078Z,124.20
2018-10-07T00:49:57.582Z,121.90
2018-10-07T00:52:26.042Z,112.43
2018-10-07T00:54:54.478Z,114.57
2018-10-07T00:57:22.967Z,114.93
2018-10-07T00:59:52.224Z,115.50
2018-10-07T01:02:20.690Z,115.53
2018-10-07T01:04:49.181Z,110.93
2018-10-07T01:07:17.641Z,104.00
2018-10-07T01:09:46.096Z,102.73
2018-10-07T01:12:14.562Z,106.63
2018-10-07T01:14:43.653Z,99.33
2018-10-07T01:17:12.099Z,102.23
2018-10-07T01:19:40.606Z,102.00
2018-10-07T01:22:09.040Z,99.83
2018-10-07T01:24:37.474Z,99.47
2018-10-07T01:27:06.588Z,99.33
2018-10-07T01:29:35.032Z,101.60
2018-10-07T01:32:03.497Z,95.47
2018-10-07T01:34:32.059Z,97.13
2018-10-07T01:37:00.654Z,95.13
2018-10-07T01:39:29.111Z,93.27
2018-10-07T01:41:57.860Z,85.13
2018-10-07T01:44:26.366Z,84.73
2018-10-07T01:46:54.920Z,79.97
2018-10-07T01:49:23.418Z,90.60
2018-10-07T01:51:52.046Z,79.60
2018-10-07T01:54:20.580Z,75.17
2018-10-07T01:56:50.370Z,65.23
2018-10-07T01:59:18.947Z,66.63
2018-10-07T02:01:48.400Z,67.13
2018-10-07T02:04:16.843Z,65.03
2018-10-07T02:06:45.382Z,61.90
2018-10-07T02:09:13.879Z,58.50
2018-10-07T02:11:42.321Z,55.40
2018-10-07T02:14:10.765Z,56.33
2018-10-07T02:16:39.772Z,58.10
2018-10-07T02:19:08.250Z,49.33
2018-10-07T02:21:37.611Z,55.40
2018-10-07T02:24:06.047Z,55.87
2018-10-07T02:26:34.469Z,52.33
2018-10-07T02:29:02.905Z,55.83
2018-10-07T02:31:31.329Z,52.77
2018-10-07T02:33:59.795Z,53.87
2018-10-07T02:36:29.048Z,50.43
2018-10-07T02:38:57.529Z,41.90
2018-10-07T02:41:25.969Z,38.60
2018-10-07T02:43:54.570Z,38.23
2018-10-07T02:46:23.015Z,35.67
2018-10-07T02:48:51.460Z,32.97
2018-10-07T02:51:20.116Z,35.70
2018-10-07T02:53:48.482Z,31.80
2018-10-07T02:56:17.636Z,36.43
2018-10-07T02:58:46.079Z,29.67
2018-10-07T03:01:14.564Z,28.33
2018-10-07T03:03:43.769Z,26.47
2018-10-07T03:06:12.897Z,32.80
2018-10-07T03:08:41.943Z,28.30
2018-10-07T03:11:10.935Z,29.43
2018-10-07T03:13:39.493Z,27.63
2018-10-07T03:16:07.966Z,30.47
2018-10-07T03:18:36.570Z,30.10
2018-10-07T03:21:05.023Z,29.93
2018-10-07T03:23:33.462Z,27.87
2018-10-07T03:26:01.905Z,24.37
2018-10-07T03:28:30.371Z,30.27
2018-10-07T03:30:58.819Z,21.93
2018-10-07T03:33:27.262Z,19.93
2018-10-07T03:35:56.437Z,19.43
2018-10-07T03:38:24.965Z,22.60
2018-10-07T03:40:54.026Z,16.83
2018-10-07T03:43:22.446Z,15.63
2018-10-07T03:45:51.096Z,13.40
2018-10-07T03:48:20.330Z,13.03
2018-10-07T03:50:48.762Z,8.93
2018-10-07T03:53:17.340Z,11.13
2018-10-07T03:55:45.823Z,11.30
2018-10-07T03:58:14.284Z,12.90
2018-10-07T04:00:42.804Z,10.17
2018-10-07T04:03:11.252Z,13.40
2018-10-07T04:05:40.282Z,10.30
2018-10-07T04:08:08.753Z,12.57
2018-10-07T04:10:37.797Z,10.90
2018-10-07T04:13:06.293Z,15.60
2018-10-07T04:15:34.762Z,16.50
2018-10-07T04:18:03.245Z,14.50
2018-10-07T04:20:31.665Z,9.57
2018-10-07T04:23:00.195Z,8.93
2018-10-07T04:25:29.746Z,6.93
2018-10-07T04:27:59.042Z,8.73
2018-10-07T04:30:27.501Z,8.53
2018-10-07T04:32:56.005Z,6.50
2018-10-07T04:35:24.425Z,8.83
2018-10-07T04:37:52.898Z,5.60
2018-10-07T04:40:21.367Z,7.10
2018-10-07T04:42:49.875Z,8.90
2018-10-07T04:45:18.261Z,4.90
2018-10-07T04:47:46.722Z,7.40
2018-10-07T04:50:15.156Z,6.80
2018-10-07T04:52:43.599Z,6.63
2018-10-07T04:55:12.018Z,6.20
2018-10-07T04:57:40.477Z,6.53
2018-10-07T05:00:09.097Z,4.87
2018-10-07T05:02:37.472Z,4.17
2018-10-07T05:05:05.937Z,5.60
2018-10-07T05:07:34.387Z,7.57
2018-10-07T05:10:14.801Z,8.30
2018-10-07T05:12:43.338Z,5.83
2018-10-07T05:15:11.846Z,5.10
2018-10-07T05:17:40.363Z,5.87
2018-10-07T05:20:08.872Z,6.37
2018-10-07T05:22:37.920Z,5.30
2018-10-07T05:25:06.362Z,7.93
2018-10-07T05:27:34.928Z,4.73
2018-10-07T05:30:03.413Z,3.77
2018-10-07T05:32:31.920Z,3.83
2018-10-07T05:35:00.374Z,3.97
2018-10-07T05:37:28.906Z,3.83
2018-10-07T05:39:57.379Z,6.57
2018-10-07T05:42:25.837Z,3.83
2018-10-07T05:44:54.335Z,3.33
2018-10-07T05:47:22.772Z,3.63
2018-10-07T05:49:51.198Z,4.33
2018-10-07T05:52:19.659Z,5.93
2018-10-07T05:54:48.124Z,4.13
2018-10-07T05:57:16.578Z,4.77
2018-10-07T05:59:45.035Z,5.10
2018-10-07T06:02:13.731Z,6.40
2018-10-07T06:04:48.694Z,4.87
2018-10-07T06:07:17.137Z,3.83
2018-10-07T06:09:45.574Z,6.47
2018-10-07T06:12:14.031Z,6.53
2018-10-07T06:14:54.061Z,5.33
2018-10-07T06:17:23.170Z,3.17
2018-10-07T06:19:51.632Z,4.37
2018-10-07T06:22:20.110Z,4.37
2018-10-07T06:24:48.547Z,7.67
2018-10-07T06:27:17.436Z,5.27
2018-10-07T06:29:45.941Z,3.50
2018-10-07T06:32:14.334Z,4.57
2018-10-07T06:34:42.825Z,7.77
2018-10-07T06:37:11.277Z,6.53
2018-10-07T06:39:40.009Z,4.17
2018-10-07T06:42:08.449Z,3.20
2018-10-07T06:44:36.870Z,5.10
2018-10-07T06:47:05.375Z,2.87
2018-10-07T06:49:34.783Z,3.30
2018-10-07T06:52:03.227Z,5.20
2018-10-07T06:54:31.732Z,4.07
2018-10-07T06:57:00.153Z,2.50
2018-10-07T06:59:28.829Z,3.07
2018-10-07T07:01:57.927Z,4.13
2018-10-07T07:04:26.559Z,4.30
2018-10-07T07:06:57.070Z,2.00
2018-10-07T07:09:26.359Z,2.30
2018-10-07T07:11:54.868Z,2.93
2018-10-07T07:14:23.455Z,1.87
2018-10-07T07:16:53.526Z,4.03
2018-10-07T07:19:21.973Z,3.00
2018-10-07T07:21:50.451Z,3.07
2018-10-07T07:24:18.884Z,1.80
2018-10-07T07:26:47.356Z,3.17
2018-10-07T07:29:15.817Z,2.53
2018-10-07T07:31:44.358Z,3.20
2018-10-07T07:34:12.814Z,2.83
2018-10-07T07:36:42.607Z,4.13
2018-10-07T07:39:11.058Z,1.43
2018-10-07T07:41:39.540Z,3.43
2018-10-07T07:44:08.729Z,3.77
2018-10-07T07:46:37.899Z,2.53
2018-10-07T07:49:06.441Z,2.03
2018-10-07T07:51:34.893Z,3.70
2018-10-07T07:54:03.947Z,3.53
2018-10-07T07:56:33.035Z,2.27
2018-10-07T07:59:01.493Z,1.10
2018-10-07T08:01:30.731Z,2.70
2018-10-07T08:03:59.266Z,3.33
2018-10-07T08:06:27.938Z,1.80
2018-10-07T08:08:56.444Z,2.30
2018-10-07T08:11:25.505Z,2.53
2018-10-07T08:13:53.984Z,2.53
2018-10-07T08:16:22.471Z,3.20
2018-10-07T08:18:50.887Z,2.97
2018-10-07T08:21:19.336Z,1.57
2018-10-07T08:23:47.860Z,4.87
2018-10-07T08:26:16.382Z,4.03
2018-10-07T08:28:44.857Z,1.63
2018-10-07T08:31:13.299Z,3.03
2018-10-07T08:33:41.832Z,1.37
2018-10-07T08:36:11.000Z,1.83
2018-10-07T08:38:39.515Z,1.47
2018-10-07T08:41:08.223Z,3.07
2018-10-07T08:43:36.698Z,3.50
2018-10-07T08:46:05.233Z,3.87
2018-10-07T08:48:34.915Z,2.93
2018-10-07T08:51:03.405Z,3.17
2018-10-07T08:53:31.891Z,2.13
2018-10-07T08:56:00.531Z,7.03
2018-10-07T08:58:29.015Z,2.20
2018-10-07T09:00:57.533Z,6.83
2018-10-07T09:03:26.129Z,4.20
2018-10-07T09:05:54.579Z,3.70
2018-10-07T09:08:23.434Z,3.07
2018-10-07T09:10:51.907Z,2.87
2018-10-07T09:13:20.553Z,3.07
2018-10-07T09:15:49.017Z,3.00
2018-10-07T09:18:17.610Z,3.90
2018-10-07T09:20:46.296Z,1.60
2018-10-07T09:23:15.904Z,2.20
2018-10-07T09:25:45.596Z,3.10
2018-10-07T09:28:15.270Z,1.57
2018-10-07T09:30:44.908Z,2.97
2018-10-07T09:33:13.372Z,1.30
2018-10-07T09:35:41.853Z,2.87
2018-10-07T09:38:10.349Z,3.10
2018-10-07T09:40:38.921Z,4.27
2018-10-07T09:43:07.400Z,2.00
2018-10-07T09:45:35.932Z,2.77
2018-10-07T09:48:04.416Z,1.97
2018-10-07T09:50:33.034Z,1.90
2018-10-07T09:53:01.455Z,1.87
2018-10-07T09:55:30.693Z,3.20
2018-10-07T09:57:59.304Z,3.03
2018-10-07T10:00:33.145Z,2.60
2018-10-07T10:03:01.631Z,2.27
2018-10-07T10:05:31.367Z,1.87
2018-10-07T10:07:59.868Z,2.73
2018-10-07T10:10:28.633Z,4.93
2018-10-07T10:12:57.185Z,3.47
2018-10-07T10:15:25.694Z,3.37
2018-10-07T10:18:00.799Z,3.80
2018-10-07T10:20:34.990Z,6.03
2018-10-07T10:24:13.503Z,3.40
2018-10-07T10:26:51.543Z,3.30
2018-10-07T10:29:29.544Z,2.33
2018-10-07T10:32:40.303Z,2.50
2018-10-07T10:35:18.953Z,2.87
2018-10-07T10:40:01.857Z,4.10
2018-10-07T10:43:39.153Z,3.27
2018-10-07T10:46:13.110Z,3.57
2018-10-07T10:48:49.222Z,2.60
2018-10-07T10:52:25.452Z,6.77
2018-10-07T10:54:58.314Z,1.63
2018-10-07T10:57:45.202Z,2.10
2018-10-07T11:00:28.087Z,3.23
2018-10-07T11:05:26.334Z,4.03
2018-10-07T11:08:14.722Z,3.80
2018-10-07T11:13:04.748Z,3.37
2018-10-07T11:15:40.868Z,2.57
2018-10-07T11:18:16.380Z,2.27
2018-10-07T11:20:56.038Z,3.77
2018-10-07T11:23:44.260Z,3.13
2018-10-07T11:26:20.063Z,3.40
2018-10-07T11:29:12.344Z,2.93
2018-10-07T11:32:06.084Z,1.80
2018-10-07T11:34:46.468Z,3.47
2018-10-07T11:37:35.111Z,2.47
2018-10-07T11:40:38.855Z,2.87
2018-10-07T11:43:17.573Z,3.97
2018-10-07T11:46:09.009Z,2.27
2018-10-07T11:48:44.779Z,5.67
2018-10-07T11:51:53.168Z,2.80
2018-10-07T11:54:31.709Z,4.17
2018-10-07T11:57:00.916Z,3.70
2018-10-07T11:59:29.408Z,6.23
2018-10-07T12:01:58.371Z,4.73
2018-10-07T12:04:26.871Z,3.57
2018-10-07T12:06:56.051Z,3.50
2018-10-07T12:09:24.552Z,3.07
2018-10-07T12:11:53.047Z,3.40
2018-10-07T12:14:21.552Z,3.90
2018-10-07T12:16:50.776Z,3.53
2018-10-07T12:19:19.393Z,4.77
2018-10-07T12:21:47.920Z,4.87
2018-10-07T12:24:16.354Z,4.40
2018-10-07T12:26:45.472Z,1.97
2018-10-07T12:29:13.978Z,2.07
2018-10-07T12:31:42.649Z,3.90
2018-10-07T12:34:11.134Z,3.53
2018-10-07T12:36:39.765Z,4.90
2018-10-07T12:39:08.240Z,4.50
2018-10-07T12:41:37.946Z,2.87
2018-10-07T12:44:06.403Z,4.33
2018-10-07T12:46:34.895Z,4.47
2018-10-07T12:49:04.125Z,2.87
2018-10-07T12:51:32.628Z,4.47
2018-10-07T12:54:01.187Z,5.90
2018-10-07T12:56:30.059Z,4.90
2018-10-07T12:58:58.568Z,3.77
2018-10-07T13:01:27.032Z,6.73
2018-10-07T13:03:55.604Z,5.80
2018-10-07T13:06:24.011Z,3.00
2018-10-07T13:08:52.547Z,4.80
2018-10-07T13:11:20.976Z,3.57
2018-10-07T13:13:49.757Z,4.70
2018-10-07T13:16:18.279Z,4.37
2018-10-07T13:18:46.831Z,3.40
2018-10-07T13:21:15.302Z,4.93
2018-10-07T13:23:44.364Z,4.40
2018-10-07T13:26:12.864Z,5.37
2018-10-07T13:28:41.314Z,4.03
2018-10-07T13:31:10.234Z,4.53
2018-10-07T13:33:39.308Z,3.37
2018-10-07T13:36:07.844Z,3.77
2018-10-07T13:38:36.398Z,3.90
2018-10-07T13:41:04.891Z,3.90
2018-10-07T13:43:33.454Z,4.87
2018-10-07T13:46:02.136Z,4.80
2018-10-07T13:48:30.813Z,5.33
2018-10-07T13:50:59.548Z,4.57
2018-10-07T13:53:28.129Z,3.33
2018-10-07T13:55:56.826Z,3.93
2018-10-07T13:58:26.003Z,7.13
2018-10-07T14:00:54.572Z,3.87
2018-10-07T14:03:23.191Z,3.13
2018-10-07T14:05:51.742Z,2.90
2018-10-07T14:08:20.224Z,5.07
2018-10-07T14:10:48.849Z,5.57
2018-10-07T14:13:17.533Z,4.53
2018-10-07T14:15:46.313Z,3.97
2018-10-07T14:18:14.870Z,5.07
2018-10-07T14:20:43.364Z,5.10
2018-10-07T14:23:11.957Z,4.67
2018-10-07T14:25:40.664Z,5.53
2018-10-07T14:28:09.147Z,7.40
2018-10-07T14:30:37.646Z,4.60
2018-10-07T14:33:06.164Z,5.10
2018-10-07T14:35:34.641Z,4.03
2018-10-07T14:38:03.097Z,3.67
2018-10-07T14:40:31.661Z,4.50
2018-10-07T14:43:00.204Z,4.23
2018-10-07T14:45:28.736Z,4.20
2018-10-07T14:47:57.242Z,6.23
2018-10-07T14:50:27.487Z,4.70
2018-10-07T14:52:56.547Z,4.80
2018-10-07T14:55:25.025Z,4.83
2018-10-07T14:57:53.510Z,4.33
2018-10-07T15:00:22.030Z,4.80
2018-10-07T15:02:50.591Z,3.47
2018-10-07T15:05:19.043Z,4.97
2018-10-07T15:07:47.772Z,6.53
2018-10-07T15:10:16.212Z,4.43
2018-10-07T15:12:46.433Z,5.63
2018-10-07T15:15:14.936Z,3.27
2018-10-07T15:17:43.423Z,4.90
2018-10-07T15:20:11.978Z,4.13
2018-10-07T15:22:41.086Z,4.27
2018-10-07T15:25:09.547Z,4.70
2018-10-07T15:27:38.019Z,3.93
2018-10-07T15:30:07.044Z,3.30
2018-10-07T15:32:36.238Z,5.67
2018-10-07T15:35:04.753Z,3.53
2018-10-07T15:37:33.436Z,3.73
2018-10-07T15:40:01.947Z,3.73
2018-10-07T15:42:30.569Z,5.57
2018-10-07T15:44:59.068Z,3.77
2018-10-07T15:47:27.598Z,3.70
2018-10-07T15:49:56.878Z,6.13
2018-10-07T15:52:25.662Z,2.90
2018-10-07T15:54:54.277Z,6.17
2018-10-07T15:57:23.453Z,3.50
2018-10-07T15:59:52.095Z,5.93
2018-10-07T16:02:20.536Z,5.47
2018-10-07T16:04:49.001Z,5.43
2018-10-07T16:07:17.485Z,4.87
2018-10-07T16:09:45.964Z,3.17
2018-10-07T16:12:15.033Z,6.67
2018-10-07T16:14:43.804Z,13.17
2018-10-07T16:17:12.391Z,30.60
2018-10-07T16:19:40.985Z,11.37
2018-10-07T16:22:09.585Z,8.43
2018-10-07T16:24:38.112Z,26.10
2018-10-07T16:27:06.768Z,4.87
2018-10-07T16:29:35.250Z,8.20
2018-10-07T16:32:04.351Z,8.27
2018-10-07T16:34:32.775Z,17.40
2018-10-07T16:37:01.247Z,9.47
2018-10-07T16:39:29.744Z,15.67
2018-10-07T16:41:59.047Z,13.03
2018-10-07T16:44:27.580Z,5.70
2018-10-07T16:46:56.203Z,9.10
2018-10-07T16:49:24.764Z,13.60
2018-10-07T16:51:53.940Z,12.07
2018-10-07T16:54:22.523Z,11.03
2018-10-07T16:56:50.991Z,7.23
2018-10-07T16:59:19.451Z,5.80
2018-10-07T17:01:47.983Z,7.73
2018-10-07T17:04:17.561Z,9.17
2018-10-07T17:06:46.141Z,6.33
2018-10-07T17:09:14.580Z,8.27
2018-10-07T17:11:43.032Z,4.97
2018-10-07T17:14:12.193Z,5.00
2018-10-07T17:16:40.739Z,10.47
2018-10-07T17:19:09.248Z,4.83
2018-10-07T17:21:37.726Z,9.97
2018-10-07T17:24:06.292Z,4.27
2018-10-07T17:26:35.242Z,6.33
2018-10-07T17:29:03.806Z,4.40
2018-10-07T17:31:32.260Z,6.83
2018-10-07T17:34:00.775Z,5.80
2018-10-07T17:36:30.459Z,7.07
2018-10-07T17:38:59.014Z,5.30
2018-10-07T17:41:27.516Z,5.47
2018-10-07T17:43:56.086Z,10.90
2018-10-07T17:46:24.606Z,12.63
2018-10-07T17:48:53.208Z,13.23
2018-10-07T17:51:21.681Z,13.17
2018-10-07T17:53:51.429Z,11.47
2018-10-07T17:56:19.930Z,9.63
2018-10-07T17:58:48.396Z,7.13
2018-10-07T18:01:16.895Z,9.20
2018-10-07T18:03:45.610Z,8.30
2018-10-07T18:06:14.144Z,6.87
2018-10-07T18:08:42.714Z,5.47
2018-10-07T18:11:11.197Z,4.70
2018-10-07T18:13:39.877Z,6.70
2018-10-07T18:16:08.362Z,7.23
2018-10-07T18:18:36.963Z,6.33
2018-10-07T18:21:05.521Z,7.70
2018-10-07T18:23:34.821Z,7.47
2018-10-07T18:26:03.916Z,9.80
2018-10-07T18:28:32.449Z,4.00
2018-10-07T18:31:01.460Z,5.90
2018-10-07T18:33:29.949Z,8.67
2018-10-07T18:35:59.150Z,9.70
2018-10-07T18:38:27.663Z,5.50
2018-10-07T18:40:56.438Z,7.63
2018-10-07T18:43:24.927Z,7.67
2018-10-07T18:45:53.403Z,10.30
2018-10-07T18:48:22.694Z,8.63
2018-10-07T18:50:51.205Z,6.17
2018-10-07T18:53:19.737Z,10.40
2018-10-07T18:55:48.288Z,8.90
2018-10-07T18:58:16.801Z,9.97
2018-10-07T19:00:45.334Z,7.93
2018-10-07T19:03:14.141Z,9.73
2018-10-07T19:05:42.686Z,11.83
2018-10-07T19:08:11.161Z,12.30
2018-10-07T19:10:39.684Z,8.50
2018-10-07T19:13:08.226Z,10.87
2018-10-07T19:15:37.369Z,11.20
2018-10-07T19:18:06.066Z,11.37
2018-10-07T19:20:34.574Z,9.03
2018-10-07T19:23:03.103Z,10.40
2018-10-07T19:25:32.538Z,10.50
2018-10-07T19:28:01.062Z,9.47
2018-10-07T19:30:30.204Z,12.97
2018-10-07T19:32:58.696Z,10.30
2018-10-07T19:35:27.346Z,8.20
2018-10-07T19:37:55.934Z,9.43
2018-10-07T19:40:24.451Z,11.70
2018-10-07T19:42:53.082Z,13.13
2018-10-07T19:45:21.652Z,11.37
2018-10-07T19:47:50.818Z,8.87
2018-10-07T19:50:19.360Z,11.57
2018-10-07T19:52:48.035Z,16.90
2018-10-07T19:55:16.468Z,13.30
2018-10-07T19:57:45.018Z,13.37
2018-10-07T20:00:13.539Z,13.63
2018-10-07T20:02:42.198Z,11.23
2018-10-07T20:05:10.668Z,11.77
2018-10-07T20:07:39.384Z,13.00
2018-10-07T20:10:07.857Z,13.50
2018-10-07T20:12:36.461Z,13.30
2018-10-07T20:15:05.306Z,12.50
2018-10-07T20:17:33.914Z,13.23
2018-10-07T20:20:02.688Z,14.17
2018-10-07T20:22:32.145Z,17.60
2018-10-07T20:25:01.534Z,12.33
2018-10-07T20:27:30.296Z,15.07
2018-10-07T20:29:59.616Z,12.40
2018-10-07T20:32:28.232Z,17.33
2018-10-07T20:34:57.042Z,14.90
2018-10-07T20:37:25.667Z,12.57
2018-10-07T20:39:54.402Z,15.07
2018-10-07T20:42:23.334Z,16.60
2018-10-07T20:44:51.789Z,14.10
2018-10-07T20:47:20.294Z,15.53
2018-10-07T20:49:48.802Z,13.83
2018-10-07T20:52:17.398Z,15.57
2018-10-07T20:54:45.961Z,20.33
2018-10-07T20:57:14.516Z,17.37
2018-10-07T20:59:43.037Z,16.67
2018-10-07T21:02:11.688Z,17.37
2018-10-07T21:04:40.198Z,18.23
2018-10-07T21:07:09.377Z,17.27
2018-10-07T21:09:38.456Z,17.07
2018-10-07T21:12:07.003Z,18.73
2018-10-07T21:14:35.463Z,18.03
2018-10-07T21:17:04.125Z,16.93
2018-10-07T21:19:32.523Z,16.90
2018-10-07T21:22:01.675Z,18.63
2018-10-07T21:24:30.163Z,21.70
2018-10-07T21:26:59.295Z,24.03
2018-10-07T21:29:28.982Z,19.10
2018-10-07T21:31:56.284Z,20.87
2018-10-07T21:34:24.770Z,19.27
2018-10-07T21:36:54.020Z,18.43
2018-10-07T21:39:23.129Z,23.07
2018-10-07T21:41:52.252Z,18.83
2018-10-07T21:44:20.800Z,19.27
2018-10-07T21:46:49.357Z,20.13
2018-10-07T21:49:17.891Z,21.17
2018-10-07T21:51:46.635Z,23.47
2018-10-07T21:54:15.142Z,22.77
2018-10-07T21:56:43.664Z,22.73
2018-10-07T21:59:12.925Z,22.23
2018-10-07T22:01:42.630Z,24.07
2018-10-07T22:04:11.170Z,20.13
2018-10-07T22:06:39.647Z,23.00
2018-10-07T22:09:08.608Z,24.13
2018-10-07T22:11:37.037Z,24.30
2018-10-07T22:14:05.610Z,25.37
2018-10-07T22:16:34.264Z,24.23
2018-10-07T22:19:02.693Z,25.47
2018-10-07T22:21:31.331Z,21.83
2018-10-07T22:23:59.779Z,28.10
2018-10-07T22:26:28.255Z,29.03
2018-10-07T22:28:56.688Z,25.23
2018-10-07T22:31:25.619Z,23.90
2018-10-07T22:33:54.047Z,24.13
2018-10-07T22:36:23.177Z,25.57
2018-10-07T22:38:51.603Z,19.93
2018-10-07T22:41:20.067Z,27.60
2018-10-07T22:43:48.528Z,26.20
2018-10-07T22:46:17.561Z,23.73
2018-10-07T22:48:46.246Z,25.63
2018-10-07T22:51:14.782Z,23.67
2018-10-07T22:53:43.399Z,21.83
2018-10-07T22:56:12.666Z,23.03
2018-10-07T22:58:41.162Z,22.33
2018-10-07T23:01:10.251Z,22.93
2018-10-07T23:03:38.707Z,28.30
2018-10-07T23:06:07.692Z,24.40
2018-10-07T23:08:36.145Z,26.00
2018-10-07T23:11:04.695Z,24.60
2018-10-07T23:13:33.186Z,23.40
2018-10-07T23:16:02.627Z,25.20
2018-10-07T23:18:31.584Z,23.73
2018-10-07T23:21:00.081Z,26.83
2018-10-07T23:23:28.517Z,26.90
2018-10-07T23:25:56.992Z,21.20
2018-10-07T23:28:25.427Z,24.27
2018-10-07T23:30:53.896Z,22.17
2018-10-07T23:33:23.177Z,24.53
2018-10-07T23:35:51.741Z,25.03
2018-10-07T23:38:20.268Z,23.50
2018-10-07T23:40:50.542Z,23.37
2018-10-07T23:43:18.997Z,24.13
2018-10-07T23:45:48.050Z,26.63
2018-10-07T23:48:17.354Z,23.83
2018-10-07T23:50:45.804Z,20.63
2018-10-07T23:53:14.285Z,26.17
2018-10-07T23:55:42.894Z,21.73
2018-10-07T23:58:11.930Z,27.43
